sensor_id;sensor_type;location;lat;lon;timestamp;P1;durP1;ratioP1;P2;durP2;ratioP2
60908;SDS011;46780;48.128;-1.704;2022-12-18T00:01:34;91.50;;;29.30;;
60908;SDS011;46780;48.128;-1.704;2022-12-18T00:04:02;88.97;;;31.17;;
60908;SDS011;46780;48.128;-1.704;2022-12-18T00:06:30;89.10;;;29.67;;
60908;SDS011;46780;48.128;-1.704;2022-12-18T00:08:57;91.80;;;30.58;;
60908;SDS011;46780;48.128;-1.704;2022-12-18T00:11:25;95.95;;;30.65;;
60908;SDS011;46780;48.128;-1.704;2022-12-18T00:13:54;90.75;;;30.98;;
60908;SDS011;46780;48.128;-1.704;2022-12-18T00:16:22;91.55;;;30.25;;
60908;SDS011;46780;48.128;-1.704;2022-12-18T00:18:53;92.43;;;29.67;;
60908;SDS011;46780;48.128;-1.704;2022-12-18T00:21:20;96.43;;;33.03;;
60908;SDS011;46780;48.128;-1.704;2022-12-18T00:23:48;95.90;;;31.33;;
60908;SDS011;46780;48.128;-1.704;2022-12-18T00:26:15;85.85;;;28.27;;
60908;SDS011;46780;48.128;-1.704;2022-12-18T00:28:44;97.93;;;30.88;;
60908;SDS011;46780;48.128;-1.704;2022-12-18T00:31:12;91.85;;;30.67;;
60908;SDS011;46780;48.128;-1.704;2022-12-18T00:33:40;100.70;;;31.83;;
60908;SDS011;46780;48.128;-1.704;2022-12-18T00:36:09;89.20;;;29.58;;
60908;SDS011;46780;48.128;-1.704;2022-12-18T00:38:38;102.82;;;32.85;;
60908;SDS011;46780;48.128;-1.704;2022-12-18T00:41:05;92.35;;;30.60;;
60908;SDS011;46780;48.128;-1.704;2022-12-18T00:43:32;94.47;;;31.48;;
60908;SDS011;46780;48.128;-1.704;2022-12-18T00:45:58;89.65;;;30.40;;
60908;SDS011;46780;48.128;-1.704;2022-12-18T00:48:25;92.05;;;30.13;;
60908;SDS011;46780;48.128;-1.704;2022-12-18T00:50:52;93.00;;;30.60;;
60908;SDS011;46780;48.128;-1.704;2022-12-18T00:53:19;99.38;;;32.08;;
60908;SDS011;46780;48.128;-1.704;2022-12-18T00:55:46;92.38;;;30.23;;
60908;SDS011;46780;48.128;-1.704;2022-12-18T00:58:13;92.97;;;30.38;;
60908;SDS011;46780;48.128;-1.704;2022-12-18T01:00:41;96.82;;;32.33;;
60908;SDS011;46780;48.128;-1.704;2022-12-18T01:03:09;91.97;;;29.52;;
60908;SDS011;46780;48.128;-1.704;2022-12-18T01:05:41;104.22;;;31.63;;
60908;SDS011;46780;48.128;-1.704;2022-12-18T01:08:08;107.28;;;32.00;;
60908;SDS011;46780;48.128;-1.704;2022-12-18T01:10:36;92.50;;;29.13;;
60908;SDS011;46780;48.128;-1.704;2022-12-18T01:13:06;93.18;;;30.88;;
60908;SDS011;46780;48.128;-1.704;2022-12-18T01:15:32;89.00;;;29.63;;
60908;SDS011;46780;48.128;-1.704;2022-12-18T01:17:59;93.20;;;31.23;;
60908;SDS011;46780;48.128;-1.704;2022-12-18T01:20:25;101.90;;;33.55;;
60908;SDS011;46780;48.128;-1.704;2022-12-18T01:22:54;102.18;;;29.05;;
60908;SDS011;46780;48.128;-1.704;2022-12-18T01:25:20;98.20;;;30.40;;
60908;SDS011;46780;48.128;-1.704;2022-12-18T01:27:48;90.47;;;29.58;;
60908;SDS011;46780;48.128;-1.704;2022-12-18T01:30:15;102.22;;;31.38;;
60908;SDS011;46780;48.128;-1.704;2022-12-18T01:32:41;100.82;;;32.58;;
60908;SDS011;46780;48.128;-1.704;2022-12-18T01:35:08;97.72;;;31.08;;
60908;SDS011;46780;48.128;-1.704;2022-12-18T01:37:34;93.95;;;31.05;;
60908;SDS011;46780;48.128;-1.704;2022-12-18T01:40:01;94.32;;;30.73;;
60908;SDS011;46780;48.128;-1.704;2022-12-18T01:42:28;103.07;;;30.77;;
60908;SDS011;46780;48.128;-1.704;2022-12-18T01:44:57;100.30;;;31.30;;
60908;SDS011;46780;48.128;-1.704;2022-12-18T01:47:27;100.60;;;31.85;;
60908;SDS011;46780;48.128;-1.704;2022-12-18T01:49:57;102.10;;;32.00;;
60908;SDS011;46780;48.128;-1.704;2022-12-18T01:52:28;96.97;;;31.25;;
60908;SDS011;46780;48.128;-1.704;2022-12-18T01:54:56;104.60;;;31.35;;
60908;SDS011;46780;48.128;-1.704;2022-12-18T01:57:23;103.57;;;31.90;;
60908;SDS011;46780;48.128;-1.704;2022-12-18T01:59:52;100.35;;;31.73;;
60908;SDS011;46780;48.128;-1.704;2022-12-18T02:02:21;101.03;;;32.35;;
60908;SDS011;46780;48.128;-1.704;2022-12-18T02:04:53;108.90;;;33.25;;
60908;SDS011;46780;48.128;-1.704;2022-12-18T02:07:22;98.88;;;32.45;;
60908;SDS011;46780;48.128;-1.704;2022-12-18T02:09:54;106.68;;;30.35;;
60908;SDS011;46780;48.128;-1.704;2022-12-18T02:12:25;100.70;;;32.33;;
60908;SDS011;46780;48.128;-1.704;2022-12-18T02:15:00;104.47;;;31.60;;
60908;SDS011;46780;48.128;-1.704;2022-12-18T02:17:36;104.47;;;33.30;;
60908;SDS011;46780;48.128;-1.704;2022-12-18T02:20:09;99.63;;;31.30;;
60908;SDS011;46780;48.128;-1.704;2022-12-18T02:22:44;103.72;;;31.10;;
60908;SDS011;46780;48.128;-1.704;2022-12-18T02:25:23;104.57;;;30.85;;
60908;SDS011;46780;48.128;-1.704;2022-12-18T02:28:00;96.25;;;31.38;;
60908;SDS011;46780;48.128;-1.704;2022-12-18T02:30:30;104.22;;;32.97;;
60908;SDS011;46780;48.128;-1.704;2022-12-18T02:33:00;104.93;;;31.73;;
60908;SDS011;46780;48.128;-1.704;2022-12-18T02:35:30;107.50;;;31.25;;
60908;SDS011;46780;48.128;-1.704;2022-12-18T02:37:57;100.25;;;31.77;;
60908;SDS011;46780;48.128;-1.704;2022-12-18T02:40:26;108.22;;;31.85;;
60908;SDS011;46780;48.128;-1.704;2022-12-18T02:42:54;106.25;;;32.03;;
60908;SDS011;46780;48.128;-1.704;2022-12-18T02:45:23;100.50;;;32.22;;
60908;SDS011;46780;48.128;-1.704;2022-12-18T02:47:49;104.93;;;31.35;;
60908;SDS011;46780;48.128;-1.704;2022-12-18T02:50:18;106.13;;;32.40;;
60908;SDS011;46780;48.128;-1.704;2022-12-18T02:52:53;104.72;;;31.95;;
60908;SDS011;46780;48.128;-1.704;2022-12-18T02:55:29;110.90;;;32.53;;
60908;SDS011;46780;48.128;-1.704;2022-12-18T02:58:09;109.85;;;31.98;;
60908;SDS011;46780;48.128;-1.704;2022-12-18T03:00:43;103.35;;;33.30;;
60908;SDS011;46780;48.128;-1.704;2022-12-18T03:03:14;101.95;;;30.65;;
60908;SDS011;46780;48.128;-1.704;2022-12-18T03:05:46;103.88;;;31.73;;
60908;SDS011;46780;48.128;-1.704;2022-12-18T03:08:19;105.05;;;32.55;;
60908;SDS011;46780;48.128;-1.704;2022-12-18T03:10:49;108.50;;;31.48;;
60908;SDS011;46780;48.128;-1.704;2022-12-18T03:13:23;97.35;;;31.58;;
60908;SDS011;46780;48.128;-1.704;2022-12-18T03:15:56;106.75;;;32.92;;
60908;SDS011;46780;48.128;-1.704;2022-12-18T03:18:25;110.93;;;33.73;;
60908;SDS011;46780;48.128;-1.704;2022-12-18T03:20:55;112.30;;;33.13;;
60908;SDS011;46780;48.128;-1.704;2022-12-18T03:23:26;104.10;;;32.42;;
60908;SDS011;46780;48.128;-1.704;2022-12-18T03:25:59;104.57;;;31.95;;
60908;SDS011;46780;48.128;-1.704;2022-12-18T03:30:58;103.95;;;31.50;;
60908;SDS011;46780;48.128;-1.704;2022-12-18T03:33:29;103.78;;;31.85;;
60908;SDS011;46780;48.128;-1.704;2022-12-18T03:36:00;108.97;;;31.90;;
60908;SDS011;46780;48.128;-1.704;2022-12-18T03:38:27;105.32;;;31.95;;
60908;SDS011;46780;48.128;-1.704;2022-12-18T03:40:56;112.22;;;35.10;;
60908;SDS011;46780;48.128;-1.704;2022-12-18T03:43:32;104.43;;;30.98;;
60908;SDS011;46780;48.128;-1.704;2022-12-18T03:46:06;103.63;;;32.00;;
60908;SDS011;46780;48.128;-1.704;2022-12-18T03:48:41;101.13;;;31.52;;
60908;SDS011;46780;48.128;-1.704;2022-12-18T03:51:13;104.22;;;32.67;;
60908;SDS011;46780;48.128;-1.704;2022-12-18T03:53:45;110.25;;;33.20;;
60908;SDS011;46780;48.128;-1.704;2022-12-18T03:56:16;108.03;;;33.42;;
60908;SDS011;46780;48.128;-1.704;2022-12-18T03:58:44;108.07;;;33.67;;
60908;SDS011;46780;48.128;-1.704;2022-12-18T04:01:15;102.35;;;32.90;;
60908;SDS011;46780;48.128;-1.704;2022-12-18T04:03:44;103.20;;;32.95;;
60908;SDS011;46780;48.128;-1.704;2022-12-18T04:06:14;99.78;;;31.55;;
60908;SDS011;46780;48.128;-1.704;2022-12-18T04:08:43;112.10;;;32.00;;
60908;SDS011;46780;48.128;-1.704;2022-12-18T04:11:11;113.13;;;34.10;;
60908;SDS011;46780;48.128;-1.704;2022-12-18T04:13:40;107.20;;;32.83;;
60908;SDS011;46780;48.128;-1.704;2022-12-18T04:16:12;105.00;;;33.17;;
60908;SDS011;46780;48.128;-1.704;2022-12-18T04:18:42;103.57;;;31.35;;
60908;SDS011;46780;48.128;-1.704;2022-12-18T04:21:10;110.00;;;33.47;;
60908;SDS011;46780;48.128;-1.704;2022-12-18T04:23:38;105.70;;;32.38;;
60908;SDS011;46780;48.128;-1.704;2022-12-18T04:26:05;106.82;;;32.60;;
60908;SDS011;46780;48.128;-1.704;2022-12-18T04:28:33;102.72;;;32.88;;
60908;SDS011;46780;48.128;-1.704;2022-12-18T04:31:01;98.07;;;32.50;;
60908;SDS011;46780;48.128;-1.704;2022-12-18T04:33:28;102.35;;;33.72;;
60908;SDS011;46780;48.128;-1.704;2022-12-18T04:35:57;104.18;;;32.55;;
60908;SDS011;46780;48.128;-1.704;2022-12-18T04:38:24;107.00;;;33.28;;
60908;SDS011;46780;48.128;-1.704;2022-12-18T04:40:51;98.65;;;30.83;;
60908;SDS011;46780;48.128;-1.704;2022-12-18T04:43:18;99.82;;;32.22;;
60908;SDS011;46780;48.128;-1.704;2022-12-18T04:45:45;100.03;;;31.73;;
60908;SDS011;46780;48.128;-1.704;2022-12-18T04:48:11;100.15;;;31.92;;
60908;SDS011;46780;48.128;-1.704;2022-12-18T04:50:39;105.13;;;32.60;;
60908;SDS011;46780;48.128;-1.704;2022-12-18T04:53:07;106.13;;;31.80;;
60908;SDS011;46780;48.128;-1.704;2022-12-18T04:55:34;98.90;;;30.75;;
60908;SDS011;46780;48.128;-1.704;2022-12-18T04:58:01;108.80;;;32.17;;
60908;SDS011;46780;48.128;-1.704;2022-12-18T05:00:27;101.35;;;33.45;;
60908;SDS011;46780;48.128;-1.704;2022-12-18T05:02:54;102.82;;;32.67;;
60908;SDS011;46780;48.128;-1.704;2022-12-18T05:05:21;110.57;;;33.13;;
60908;SDS011;46780;48.128;-1.704;2022-12-18T05:07:47;98.40;;;31.13;;
60908;SDS011;46780;48.128;-1.704;2022-12-18T05:10:17;97.60;;;31.90;;
60908;SDS011;46780;48.128;-1.704;2022-12-18T05:12:43;103.53;;;32.25;;
60908;SDS011;46780;48.128;-1.704;2022-12-18T05:15:10;105.47;;;33.50;;
60908;SDS011;46780;48.128;-1.704;2022-12-18T05:17:37;106.90;;;31.55;;
60908;SDS011;46780;48.128;-1.704;2022-12-18T05:20:04;99.47;;;32.35;;
60908;SDS011;46780;48.128;-1.704;2022-12-18T05:22:31;102.03;;;32.22;;
60908;SDS011;46780;48.128;-1.704;2022-12-18T05:24:58;104.40;;;33.50;;
60908;SDS011;46780;48.128;-1.704;2022-12-18T05:27:26;113.10;;;34.10;;
60908;SDS011;46780;48.128;-1.704;2022-12-18T05:29:53;103.82;;;31.90;;
60908;SDS011;46780;48.128;-1.704;2022-12-18T05:32:19;104.63;;;33.30;;
60908;SDS011;46780;48.128;-1.704;2022-12-18T05:34:46;104.38;;;31.90;;
60908;SDS011;46780;48.128;-1.704;2022-12-18T05:37:12;97.78;;;32.90;;
60908;SDS011;46780;48.128;-1.704;2022-12-18T05:39:39;97.65;;;32.08;;
60908;SDS011;46780;48.128;-1.704;2022-12-18T05:42:05;92.13;;;31.42;;
60908;SDS011;46780;48.128;-1.704;2022-12-18T05:44:33;102.70;;;31.63;;
60908;SDS011;46780;48.128;-1.704;2022-12-18T05:47:00;101.00;;;33.67;;
60908;SDS011;46780;48.128;-1.704;2022-12-18T05:49:26;105.93;;;34.10;;
60908;SDS011;46780;48.128;-1.704;2022-12-18T05:51:53;101.53;;;32.47;;
60908;SDS011;46780;48.128;-1.704;2022-12-18T05:54:20;97.70;;;30.98;;
60908;SDS011;46780;48.128;-1.704;2022-12-18T05:56:46;103.43;;;33.17;;
60908;SDS011;46780;48.128;-1.704;2022-12-18T05:59:13;100.63;;;32.22;;
60908;SDS011;46780;48.128;-1.704;2022-12-18T06:01:41;102.00;;;34.17;;
60908;SDS011;46780;48.128;-1.704;2022-12-18T06:04:08;99.30;;;31.65;;
60908;SDS011;46780;48.128;-1.704;2022-12-18T06:06:34;102.30;;;32.65;;
60908;SDS011;46780;48.128;-1.704;2022-12-18T06:09:01;94.78;;;32.75;;
60908;SDS011;46780;48.128;-1.704;2022-12-18T06:11:28;96.00;;;31.05;;
60908;SDS011;46780;48.128;-1.704;2022-12-18T06:13:54;87.15;;;31.20;;
60908;SDS011;46780;48.128;-1.704;2022-12-18T06:16:22;96.55;;;31.95;;
60908;SDS011;46780;48.128;-1.704;2022-12-18T06:18:50;101.18;;;32.60;;
60908;SDS011;46780;48.128;-1.704;2022-12-18T06:21:16;104.20;;;32.47;;
60908;SDS011;46780;48.128;-1.704;2022-12-18T06:23:43;95.47;;;33.08;;
60908;SDS011;46780;48.128;-1.704;2022-12-18T06:26:10;82.30;;;28.50;;
60908;SDS011;46780;48.128;-1.704;2022-12-18T06:28:37;100.28;;;31.98;;
60908;SDS011;46780;48.128;-1.704;2022-12-18T06:31:04;99.90;;;31.92;;
60908;SDS011;46780;48.128;-1.704;2022-12-18T06:33:31;95.07;;;31.70;;
60908;SDS011;46780;48.128;-1.704;2022-12-18T06:36:01;95.85;;;31.50;;
60908;SDS011;46780;48.128;-1.704;2022-12-18T06:38:29;89.10;;;30.30;;
60908;SDS011;46780;48.128;-1.704;2022-12-18T06:40:56;94.28;;;31.70;;
60908;SDS011;46780;48.128;-1.704;2022-12-18T06:43:23;86.72;;;30.10;;
60908;SDS011;46780;48.128;-1.704;2022-12-18T06:45:50;96.57;;;31.98;;
60908;SDS011;46780;48.128;-1.704;2022-12-18T06:48:16;97.15;;;30.10;;
60908;SDS011;46780;48.128;-1.704;2022-12-18T06:50:43;85.93;;;29.80;;
60908;SDS011;46780;48.128;-1.704;2022-12-18T06:53:11;87.93;;;31.48;;
60908;SDS011;46780;48.128;-1.704;2022-12-18T06:55:37;78.13;;;27.73;;
60908;SDS011;46780;48.128;-1.704;2022-12-18T06:58:04;75.68;;;28.40;;
60908;SDS011;46780;48.128;-1.704;2022-12-18T07:00:30;80.18;;;29.45;;
60908;SDS011;46780;48.128;-1.704;2022-12-18T07:02:57;80.00;;;29.67;;
60908;SDS011;46780;48.128;-1.704;2022-12-18T07:05:23;81.18;;;29.55;;
60908;SDS011;46780;48.128;-1.704;2022-12-18T07:07:50;79.38;;;29.20;;
60908;SDS011;46780;48.128;-1.704;2022-12-18T07:10:18;74.13;;;28.70;;
60908;SDS011;46780;48.128;-1.704;2022-12-18T07:12:44;76.75;;;28.70;;
60908;SDS011;46780;48.128;-1.704;2022-12-18T07:15:11;75.57;;;28.48;;
60908;SDS011;46780;48.128;-1.704;2022-12-18T07:17:37;77.30;;;29.90;;
60908;SDS011;46780;48.128;-1.704;2022-12-18T07:20:04;75.35;;;28.52;;
60908;SDS011;46780;48.128;-1.704;2022-12-18T07:22:31;62.97;;;25.25;;
60908;SDS011;46780;48.128;-1.704;2022-12-18T07:24:58;64.70;;;26.50;;
60908;SDS011;46780;48.128;-1.704;2022-12-18T07:27:26;74.07;;;27.00;;
60908;SDS011;46780;48.128;-1.704;2022-12-18T07:29:52;69.47;;;27.98;;
60908;SDS011;46780;48.128;-1.704;2022-12-18T07:32:18;64.35;;;26.35;;
60908;SDS011;46780;48.128;-1.704;2022-12-18T07:34:45;70.75;;;27.00;;
60908;SDS011;46780;48.128;-1.704;2022-12-18T07:37:11;63.83;;;26.65;;
60908;SDS011;46780;48.128;-1.704;2022-12-18T07:39:38;62.55;;;25.38;;
60908;SDS011;46780;48.128;-1.704;2022-12-18T07:42:04;63.00;;;25.83;;
60908;SDS011;46780;48.128;-1.704;2022-12-18T07:44:32;64.22;;;26.13;;
60908;SDS011;46780;48.128;-1.704;2022-12-18T07:46:59;58.28;;;24.92;;
60908;SDS011;46780;48.128;-1.704;2022-12-18T07:49:26;57.50;;;25.85;;
60908;SDS011;46780;48.128;-1.704;2022-12-18T07:51:53;61.83;;;25.13;;
60908;SDS011;46780;48.128;-1.704;2022-12-18T07:54:20;60.08;;;25.38;;
60908;SDS011;46780;48.128;-1.704;2022-12-18T07:56:47;51.97;;;23.10;;
60908;SDS011;46780;48.128;-1.704;2022-12-18T07:59:14;55.97;;;23.50;;
60908;SDS011;46780;48.128;-1.704;2022-12-18T08:01:41;53.38;;;24.88;;
60908;SDS011;46780;48.128;-1.704;2022-12-18T08:04:08;47.50;;;21.15;;
60908;SDS011;46780;48.128;-1.704;2022-12-18T08:06:35;52.95;;;23.63;;
60908;SDS011;46780;48.128;-1.704;2022-12-18T08:09:01;49.95;;;22.90;;
60908;SDS011;46780;48.128;-1.704;2022-12-18T08:11:28;49.72;;;23.33;;
60908;SDS011;46780;48.128;-1.704;2022-12-18T08:13:55;46.63;;;22.40;;
60908;SDS011;46780;48.128;-1.704;2022-12-18T08:16:22;45.70;;;22.50;;
60908;SDS011;46780;48.128;-1.704;2022-12-18T08:18:51;47.30;;;23.20;;
60908;SDS011;46780;48.128;-1.704;2022-12-18T08:21:18;42.67;;;20.08;;
60908;SDS011;46780;48.128;-1.704;2022-12-18T08:23:46;44.72;;;21.67;;
60908;SDS011;46780;48.128;-1.704;2022-12-18T08:26:13;45.67;;;22.85;;
60908;SDS011;46780;48.128;-1.704;2022-12-18T08:28:40;45.65;;;22.17;;
60908;SDS011;46780;48.128;-1.704;2022-12-18T08:31:07;46.72;;;22.65;;
60908;SDS011;46780;48.128;-1.704;2022-12-18T08:33:34;47.28;;;22.70;;
60908;SDS011;46780;48.128;-1.704;2022-12-18T08:36:03;42.05;;;21.83;;
60908;SDS011;46780;48.128;-1.704;2022-12-18T08:38:31;42.13;;;20.65;;
60908;SDS011;46780;48.128;-1.704;2022-12-18T08:40:58;41.92;;;21.40;;
60908;SDS011;46780;48.128;-1.704;2022-12-18T08:43:24;40.95;;;21.73;;
60908;SDS011;46780;48.128;-1.704;2022-12-18T08:45:51;38.35;;;20.00;;
60908;SDS011;46780;48.128;-1.704;2022-12-18T08:48:17;38.47;;;19.15;;
60908;SDS011;46780;48.128;-1.704;2022-12-18T08:50:44;38.50;;;19.90;;
60908;SDS011;46780;48.128;-1.704;2022-12-18T08:53:21;38.55;;;19.90;;
60908;SDS011;46780;48.128;-1.704;2022-12-18T08:55:47;37.97;;;19.83;;
60908;SDS011;46780;48.128;-1.704;2022-12-18T08:58:14;39.78;;;20.42;;
60908;SDS011;46780;48.128;-1.704;2022-12-18T09:00:41;39.40;;;20.15;;
60908;SDS011;46780;48.128;-1.704;2022-12-18T09:03:10;37.03;;;18.75;;
60908;SDS011;46780;48.128;-1.704;2022-12-18T09:05:37;36.58;;;19.88;;
60908;SDS011;46780;48.128;-1.704;2022-12-18T09:08:04;37.08;;;19.75;;
60908;SDS011;46780;48.128;-1.704;2022-12-18T09:10:32;36.85;;;18.52;;
60908;SDS011;46780;48.128;-1.704;2022-12-18T09:12:58;35.00;;;18.42;;
60908;SDS011;46780;48.128;-1.704;2022-12-18T09:15:25;40.08;;;20.02;;
60908;SDS011;46780;48.128;-1.704;2022-12-18T09:17:51;37.40;;;19.20;;
60908;SDS011;46780;48.128;-1.704;2022-12-18T09:20:18;36.35;;;19.50;;
60908;SDS011;46780;48.128;-1.704;2022-12-18T09:22:44;38.97;;;19.88;;
60908;SDS011;46780;48.128;-1.704;2022-12-18T09:25:11;39.50;;;20.10;;
60908;SDS011;46780;48.128;-1.704;2022-12-18T09:27:39;37.80;;;18.48;;
60908;SDS011;46780;48.128;-1.704;2022-12-18T09:30:06;36.03;;;18.15;;
60908;SDS011;46780;48.128;-1.704;2022-12-18T09:32:33;35.25;;;18.75;;
60908;SDS011;46780;48.128;-1.704;2022-12-18T09:35:00;38.65;;;19.30;;
60908;SDS011;46780;48.128;-1.704;2022-12-18T09:37:26;38.38;;;18.92;;
60908;SDS011;46780;48.128;-1.704;2022-12-18T09:39:53;41.13;;;20.38;;
60908;SDS011;46780;48.128;-1.704;2022-12-18T09:42:20;38.78;;;20.08;;
60908;SDS011;46780;48.128;-1.704;2022-12-18T09:44:49;41.42;;;20.48;;
60908;SDS011;46780;48.128;-1.704;2022-12-18T09:47:18;43.15;;;21.58;;
60908;SDS011;46780;48.128;-1.704;2022-12-18T09:49:49;42.03;;;20.38;;
60908;SDS011;46780;48.128;-1.704;2022-12-18T09:52:19;45.60;;;21.27;;
60908;SDS011;46780;48.128;-1.704;2022-12-18T09:54:50;44.42;;;21.17;;
60908;SDS011;46780;48.128;-1.704;2022-12-18T09:57:20;42.67;;;21.45;;
60908;SDS011;46780;48.128;-1.704;2022-12-18T09:59:51;44.78;;;21.83;;
60908;SDS011;46780;48.128;-1.704;2022-12-18T10:02:22;50.30;;;23.67;;
60908;SDS011;46780;48.128;-1.704;2022-12-18T10:04:54;48.05;;;23.20;;
60908;SDS011;46780;48.128;-1.704;2022-12-18T10:07:29;48.72;;;22.67;;
60908;SDS011;46780;48.128;-1.704;2022-12-18T10:10:06;52.60;;;23.25;;
60908;SDS011;46780;48.128;-1.704;2022-12-18T10:12:41;54.15;;;24.90;;
60908;SDS011;46780;48.128;-1.704;2022-12-18T10:15:19;47.88;;;22.02;;
60908;SDS011;46780;48.128;-1.704;2022-12-18T10:17:51;50.47;;;24.48;;
60908;SDS011;46780;48.128;-1.704;2022-12-18T10:20:24;54.15;;;23.50;;
60908;SDS011;46780;48.128;-1.704;2022-12-18T10:22:59;57.05;;;25.35;;
60908;SDS011;46780;48.128;-1.704;2022-12-18T10:25:31;63.08;;;26.30;;
60908;SDS011;46780;48.128;-1.704;2022-12-18T10:28:07;56.95;;;25.17;;
60908;SDS011;46780;48.128;-1.704;2022-12-18T10:30:38;53.58;;;24.45;;
60908;SDS011;46780;48.128;-1.704;2022-12-18T10:33:05;53.83;;;23.73;;
60908;SDS011;46780;48.128;-1.704;2022-12-18T10:35:31;53.22;;;23.65;;
60908;SDS011;46780;48.128;-1.704;2022-12-18T10:37:59;52.88;;;23.55;;
60908;SDS011;46780;48.128;-1.704;2022-12-18T10:40:27;56.17;;;25.20;;
60908;SDS011;46780;48.128;-1.704;2022-12-18T10:43:03;58.97;;;24.48;;
60908;SDS011;46780;48.128;-1.704;2022-12-18T10:45:30;58.90;;;25.08;;
60908;SDS011;46780;48.128;-1.704;2022-12-18T10:47:58;64.20;;;25.10;;
60908;SDS011;46780;48.128;-1.704;2022-12-18T10:50:26;59.03;;;25.55;;
60908;SDS011;46780;48.128;-1.704;2022-12-18T10:52:56;48.08;;;21.50;;
60908;SDS011;46780;48.128;-1.704;2022-12-18T10:55:26;47.20;;;21.27;;
60908;SDS011;46780;48.128;-1.704;2022-12-18T11:01:07;55.40;;;23.60;;
60908;SDS011;46780;48.128;-1.704;2022-12-18T11:03:38;56.58;;;23.75;;
60908;SDS011;46780;48.128;-1.704;2022-12-18T11:06:07;52.20;;;23.92;;
60908;SDS011;46780;48.128;-1.704;2022-12-18T11:08:35;55.25;;;24.88;;
60908;SDS011;46780;48.128;-1.704;2022-12-18T11:11:02;60.00;;;26.02;;
60908;SDS011;46780;48.128;-1.704;2022-12-18T11:13:32;52.15;;;24.23;;
60908;SDS011;46780;48.128;-1.704;2022-12-18T11:15:59;48.78;;;23.67;;
60908;SDS011;46780;48.128;-1.704;2022-12-18T11:18:27;55.47;;;23.58;;
60908;SDS011;46780;48.128;-1.704;2022-12-18T11:20:57;56.80;;;25.20;;
60908;SDS011;46780;48.128;-1.704;2022-12-18T11:23:30;55.75;;;25.30;;
60908;SDS011;46780;48.128;-1.704;2022-12-18T11:25:57;55.53;;;25.65;;
60908;SDS011;46780;48.128;-1.704;2022-12-18T11:28:27;51.53;;;24.67;;
60908;SDS011;46780;48.128;-1.704;2022-12-18T11:31:09;44.22;;;21.90;;
60908;SDS011;46780;48.128;-1.704;2022-12-18T11:33:51;39.38;;;20.85;;
60908;SDS011;46780;48.128;-1.704;2022-12-18T11:39:01;43.20;;;20.13;;
60908;SDS011;46780;48.128;-1.704;2022-12-18T11:41:37;37.97;;;21.15;;
60908;SDS011;46780;48.128;-1.704;2022-12-18T11:44:10;40.63;;;21.13;;
60908;SDS011;46780;48.128;-1.704;2022-12-18T11:46:41;43.07;;;21.00;;
60908;SDS011;46780;48.128;-1.704;2022-12-18T11:49:12;41.88;;;21.70;;
60908;SDS011;46780;48.128;-1.704;2022-12-18T11:51:47;44.38;;;21.55;;
60908;SDS011;46780;48.128;-1.704;2022-12-18T11:54:17;44.60;;;22.92;;
60908;SDS011;46780;48.128;-1.704;2022-12-18T11:56:45;44.65;;;22.25;;
60908;SDS011;46780;48.128;-1.704;2022-12-18T11:59:15;41.95;;;21.40;;
60908;SDS011;46780;48.128;-1.704;2022-12-18T12:01:50;37.60;;;19.67;;
60908;SDS011;46780;48.128;-1.704;2022-12-18T12:04:31;40.20;;;21.00;;
60908;SDS011;46780;48.128;-1.704;2022-12-18T12:07:13;38.78;;;21.17;;
60908;SDS011;46780;48.128;-1.704;2022-12-18T12:09:50;36.25;;;19.27;;
60908;SDS011;46780;48.128;-1.704;2022-12-18T12:12:30;35.42;;;19.98;;
60908;SDS011;46780;48.128;-1.704;2022-12-18T12:15:04;35.25;;;19.60;;
60908;SDS011;46780;48.128;-1.704;2022-12-18T12:17:40;41.20;;;21.08;;
60908;SDS011;46780;48.128;-1.704;2022-12-18T12:20:12;35.75;;;19.13;;
60908;SDS011;46780;48.128;-1.704;2022-12-18T12:22:49;38.10;;;20.20;;
60908;SDS011;46780;48.128;-1.704;2022-12-18T12:25:25;33.75;;;18.50;;
60908;SDS011;46780;48.128;-1.704;2022-12-18T12:28:02;30.50;;;16.15;;
60908;SDS011;46780;48.128;-1.704;2022-12-18T12:30:41;35.65;;;19.83;;
60908;SDS011;46780;48.128;-1.704;2022-12-18T12:33:21;36.42;;;21.00;;
60908;SDS011;46780;48.128;-1.704;2022-12-18T12:35:59;40.67;;;21.30;;
60908;SDS011;46780;48.128;-1.704;2022-12-18T12:38:35;40.35;;;21.10;;
60908;SDS011;46780;48.128;-1.704;2022-12-18T12:41:07;39.83;;;21.73;;
60908;SDS011;46780;48.128;-1.704;2022-12-18T12:43:38;42.55;;;21.85;;
60908;SDS011;46780;48.128;-1.704;2022-12-18T12:46:08;41.55;;;21.52;;
60908;SDS011;46780;48.128;-1.704;2022-12-18T12:48:37;52.50;;;23.33;;
60908;SDS011;46780;48.128;-1.704;2022-12-18T12:51:10;47.42;;;23.40;;
60908;SDS011;46780;48.128;-1.704;2022-12-18T12:53:42;51.13;;;25.35;;
60908;SDS011;46780;48.128;-1.704;2022-12-18T12:56:09;57.38;;;27.35;;
60908;SDS011;46780;48.128;-1.704;2022-12-18T12:58:41;66.57;;;28.80;;
60908;SDS011;46780;48.128;-1.704;2022-12-18T13:01:23;79.00;;;33.25;;
60908;SDS011;46780;48.128;-1.704;2022-12-18T13:03:55;81.63;;;32.53;;
60908;SDS011;46780;48.128;-1.704;2022-12-18T13:06:39;92.05;;;34.22;;
60908;SDS011;46780;48.128;-1.704;2022-12-18T13:09:13;107.32;;;37.22;;
60908;SDS011;46780;48.128;-1.704;2022-12-18T13:11:39;106.13;;;36.70;;
60908;SDS011;46780;48.128;-1.704;2022-12-18T13:14:12;109.70;;;38.70;;
60908;SDS011;46780;48.128;-1.704;2022-12-18T13:16:47;113.45;;;39.50;;
60908;SDS011;46780;48.128;-1.704;2022-12-18T13:19:19;113.80;;;38.70;;
60908;SDS011;46780;48.128;-1.704;2022-12-18T13:21:51;114.80;;;39.50;;
60908;SDS011;46780;48.128;-1.704;2022-12-18T13:24:23;111.68;;;38.67;;
60908;SDS011;46780;48.128;-1.704;2022-12-18T13:26:51;101.30;;;37.00;;
60908;SDS011;46780;48.128;-1.704;2022-12-18T13:32:22;111.93;;;38.53;;
60908;SDS011;46780;48.128;-1.704;2022-12-18T13:34:51;107.30;;;39.38;;
60908;SDS011;46780;48.128;-1.704;2022-12-18T13:37:55;102.82;;;35.42;;
60908;SDS011;46780;48.128;-1.704;2022-12-18T13:43:22;100.00;;;36.35;;
60908;SDS011;46780;48.128;-1.704;2022-12-18T13:45:59;88.13;;;35.80;;
60908;SDS011;46780;48.128;-1.704;2022-12-18T13:48:29;94.28;;;38.17;;
60908;SDS011;46780;48.128;-1.704;2022-12-18T13:50:59;97.00;;;36.55;;
60908;SDS011;46780;48.128;-1.704;2022-12-18T13:53:29;85.28;;;36.80;;
60908;SDS011;46780;48.128;-1.704;2022-12-18T13:56:01;82.40;;;35.08;;
60908;SDS011;46780;48.128;-1.704;2022-12-18T13:58:29;86.00;;;35.97;;
60908;SDS011;46780;48.128;-1.704;2022-12-18T14:00:56;88.50;;;35.95;;
60908;SDS011;46780;48.128;-1.704;2022-12-18T14:03:23;86.30;;;34.13;;
60908;SDS011;46780;48.128;-1.704;2022-12-18T14:05:52;72.25;;;32.67;;
60908;SDS011;46780;48.128;-1.704;2022-12-18T14:08:21;65.43;;;31.03;;
60908;SDS011;46780;48.128;-1.704;2022-12-18T14:10:49;54.83;;;27.35;;
60908;SDS011;46780;48.128;-1.704;2022-12-18T14:13:19;62.20;;;29.25;;
60908;SDS011;46780;48.128;-1.704;2022-12-18T14:15:52;48.47;;;24.17;;
60908;SDS011;46780;48.128;-1.704;2022-12-18T14:18:20;53.97;;;26.60;;
60908;SDS011;46780;48.128;-1.704;2022-12-18T14:20:49;55.35;;;26.15;;
60908;SDS011;46780;48.128;-1.704;2022-12-18T14:23:27;55.38;;;27.80;;
60908;SDS011;46780;48.128;-1.704;2022-12-18T14:25:55;49.90;;;24.42;;
60908;SDS011;46780;48.128;-1.704;2022-12-18T14:28:23;53.58;;;25.77;;
60908;SDS011;46780;48.128;-1.704;2022-12-18T14:30:50;51.55;;;23.70;;
60908;SDS011;46780;48.128;-1.704;2022-12-18T14:33:17;46.15;;;24.45;;